createdAt,value
2023-01-08T00:00:50.190Z,1.60
2023-01-08T00:03:18.329Z,1.43
2023-01-08T00:05:46.080Z,1.30
2023-01-08T00:08:14.217Z,1.10
2023-01-08T00:10:42.019Z,1.40
2023-01-08T00:13:09.771Z,1.50
2023-01-08T00:15:38.828Z,1.43
2023-01-08T00:18:07.053Z,1.70
2023-01-08T00:20:34.822Z,1.50
2023-01-08T00:23:02.564Z,1.47
2023-01-08T00:25:30.363Z,1.40
2023-01-08T00:27:58.109Z,1.30
2023-01-08T00:30:25.848Z,1.60
2023-01-08T00:32:55.033Z,1.50
2023-01-08T00:35:22.753Z,1.43
2023-01-08T00:37:50.627Z,1.67
2023-01-08T00:40:18.467Z,1.60
2023-01-08T00:42:46.223Z,1.40
2023-01-08T00:45:14.000Z,1.50
2023-01-08T00:47:41.793Z,1.70
2023-01-08T00:50:11.528Z,1.33
2023-01-08T00:52:39.622Z,1.60
2023-01-08T00:55:08.440Z,1.40
2023-01-08T00:57:37.044Z,1.50
2023-01-08T01:00:06.137Z,1.40
2023-01-08T01:02:35.721Z,1.77
2023-01-08T01:05:03.516Z,1.73
2023-01-08T01:07:32.948Z,1.43
2023-01-08T01:10:00.680Z,1.50
2023-01-08T01:12:28.468Z,1.60
2023-01-08T01:14:56.156Z,1.30
2023-01-08T01:17:23.889Z,1.40
2023-01-08T01:19:51.707Z,1.70
2023-01-08T01:22:19.524Z,1.50
2023-01-08T01:24:48.723Z,1.70
2023-01-08T01:27:16.433Z,1.47
2023-01-08T01:29:44.191Z,1.40
2023-01-08T01:32:11.977Z,1.57
2023-01-08T01:34:39.742Z,1.70
2023-01-08T01:37:07.637Z,1.50
2023-01-08T01:39:35.352Z,1.50
2023-01-08T01:42:04.616Z,1.60
2023-01-08T01:44:40.735Z,1.70
2023-01-08T01:47:16.941Z,1.53
2023-01-08T01:49:51.299Z,2.07
2023-01-08T01:52:20.804Z,1.90
2023-01-08T01:54:49.059Z,1.77
2023-01-08T01:57:18.152Z,1.90
2023-01-08T01:59:48.688Z,2.10
2023-01-08T02:02:16.546Z,2.07
2023-01-08T02:04:44.544Z,2.33
2023-01-08T02:07:16.921Z,2.37
2023-01-08T02:09:50.052Z,2.80
2023-01-08T02:12:26.176Z,2.33
2023-01-08T02:15:11.418Z,2.60
2023-01-08T02:17:48.808Z,2.30
2023-01-08T02:20:21.627Z,3.07
2023-01-08T02:23:07.129Z,3.90
2023-01-08T02:25:46.671Z,3.57
2023-01-08T02:28:16.621Z,4.53
2023-01-08T02:30:45.696Z,4.00
2023-01-08T02:33:13.652Z,3.50
2023-01-08T02:35:45.745Z,3.70
2023-01-08T02:38:17.210Z,4.60
2023-01-08T02:40:54.406Z,5.57
2023-01-08T02:43:31.605Z,5.37
2023-01-08T02:46:02.657Z,5.20
2023-01-08T02:48:37.430Z,5.47
2023-01-08T02:51:08.416Z,5.33
2023-01-08T02:53:41.089Z,6.53
2023-01-08T02:56:12.277Z,4.70
2023-01-08T02:58:42.733Z,3.70
2023-01-08T03:01:12.991Z,3.80
2023-01-08T03:03:45.048Z,3.80
2023-01-08T03:06:16.469Z,3.67
2023-01-08T03:08:47.553Z,3.33
2023-01-08T03:11:18.728Z,3.53
2023-01-08T03:13:52.222Z,2.93
2023-01-08T03:16:24.894Z,3.00
2023-01-08T03:18:57.228Z,2.80
2023-01-08T03:21:25.114Z,2.43
2023-01-08T03:23:53.901Z,2.90
2023-01-08T03:26:26.938Z,2.90
2023-01-08T03:28:58.522Z,2.83
2023-01-08T03:31:29.030Z,3.30
2023-01-08T03:33:57.471Z,3.43
2023-01-08T03:36:28.255Z,2.87
2023-01-08T03:39:01.105Z,2.87
2023-01-08T03:41:33.705Z,2.40
2023-01-08T03:44:02.949Z,2.57
2023-01-08T03:46:34.439Z,2.70
2023-01-08T03:49:04.923Z,3.03
2023-01-08T03:51:40.799Z,2.60
2023-01-08T03:54:12.620Z,2.90
2023-01-08T03:56:40.441Z,3.20
2023-01-08T03:59:09.878Z,3.30
2023-01-08T04:01:37.672Z,3.20
2023-01-08T04:04:05.959Z,2.90
2023-01-08T04:06:33.720Z,2.87
2023-01-08T04:09:01.633Z,3.00
2023-01-08T04:11:29.391Z,2.70
2023-01-08T04:13:57.170Z,3.13
2023-01-08T04:16:26.330Z,2.60
2023-01-08T04:18:54.125Z,3.23
2023-01-08T04:21:21.882Z,2.83
2023-01-08T04:23:49.633Z,3.47
2023-01-08T04:26:17.360Z,3.53
2023-01-08T04:28:45.074Z,3.17
2023-01-08T04:31:12.856Z,3.50
2023-01-08T04:33:42.042Z,3.77
2023-01-08T04:36:10.952Z,2.50
2023-01-08T04:38:38.745Z,3.10
2023-01-08T04:41:06.815Z,3.30
2023-01-08T04:43:34.628Z,2.90
2023-01-08T04:46:03.752Z,2.57
2023-01-08T04:48:32.197Z,3.00
2023-01-08T04:51:02.214Z,2.90
2023-01-08T04:53:31.020Z,2.80
2023-01-08T04:56:04.813Z,3.60
2023-01-08T04:58:32.552Z,3.27
2023-01-08T05:01:00.268Z,2.47
2023-01-08T05:03:28.215Z,3.03
2023-01-08T05:05:55.974Z,2.97
2023-01-08T05:08:25.101Z,3.00
2023-01-08T05:10:52.835Z,2.90
2023-01-08T05:13:20.611Z,2.70
2023-01-08T05:15:48.389Z,2.83
2023-01-08T05:18:16.191Z,2.40
2023-01-08T05:20:43.953Z,2.40
2023-01-08T05:23:11.707Z,1.90
2023-01-08T05:25:40.793Z,1.90
2023-01-08T05:28:08.549Z,1.50
2023-01-08T05:30:38.017Z,1.37
2023-01-08T05:33:05.816Z,1.20
2023-01-08T05:35:33.518Z,1.33
2023-01-08T05:38:01.313Z,1.30
2023-01-08T05:40:28.987Z,1.10
2023-01-08T05:43:00.355Z,1.30
2023-01-08T05:45:28.516Z,1.00
2023-01-08T05:47:56.852Z,1.07
2023-01-08T05:50:24.791Z,0.90
2023-01-08T05:52:52.620Z,1.17
2023-01-08T05:55:20.349Z,1.20
2023-01-08T05:57:48.148Z,1.00
2023-01-08T06:00:17.841Z,0.90
2023-01-08T06:02:48.399Z,1.00
2023-01-08T06:05:16.599Z,0.80
2023-01-08T06:07:44.360Z,0.83
2023-01-08T06:10:12.263Z,0.80
2023-01-08T06:12:39.989Z,0.80
2023-01-08T06:15:08.956Z,0.80
2023-01-08T06:17:38.160Z,0.80
2023-01-08T06:20:06.959Z,0.80
2023-01-08T06:22:34.968Z,0.87
2023-01-08T06:25:02.958Z,0.80
2023-01-08T06:27:31.113Z,0.90
2023-01-08T06:29:59.055Z,0.70
2023-01-08T06:32:26.760Z,1.10
2023-01-08T06:34:55.845Z,0.60
2023-01-08T06:37:23.548Z,0.90
2023-01-08T06:39:51.265Z,0.50
2023-01-08T06:42:19.010Z,0.83
2023-01-08T06:44:46.744Z,0.97
2023-01-08T06:47:14.523Z,0.70
2023-01-08T06:49:42.369Z,0.77
2023-01-08T06:52:11.745Z,0.80
2023-01-08T06:54:39.523Z,0.80
2023-01-08T06:57:07.253Z,0.80
2023-01-08T06:59:36.779Z,0.70
2023-01-08T07:02:07.809Z,0.80
2023-01-08T07:04:35.523Z,1.00
2023-01-08T07:07:03.275Z,1.00
2023-01-08T07:09:32.611Z,0.67
2023-01-08T07:12:00.314Z,0.53
2023-01-08T07:14:28.139Z,0.50
2023-01-08T07:16:55.819Z,0.50
2023-01-08T07:19:23.640Z,0.73
2023-01-08T07:21:51.375Z,1.10
2023-01-08T07:24:19.150Z,0.90
2023-01-08T07:26:48.345Z,1.10
2023-01-08T07:29:16.134Z,0.90
2023-01-08T07:31:43.967Z,0.80
2023-01-08T07:34:13.566Z,0.80
2023-01-08T07:36:42.281Z,0.83
2023-01-08T07:39:10.017Z,0.90
2023-01-08T07:41:37.931Z,1.07
2023-01-08T07:44:07.249Z,1.00
2023-01-08T07:46:35.054Z,0.80
2023-01-08T07:49:02.856Z,1.00
2023-01-08T07:51:30.808Z,0.80
2023-01-08T07:53:58.692Z,0.90
2023-01-08T07:56:26.457Z,0.93
2023-01-08T07:58:54.196Z,0.87
2023-01-08T08:01:24.090Z,1.20
2023-01-08T08:03:51.935Z,1.00
2023-01-08T08:06:21.956Z,1.10
2023-01-08T08:08:49.630Z,0.77
2023-01-08T08:11:17.380Z,1.40
2023-01-08T08:13:47.434Z,1.20
2023-01-08T08:16:15.245Z,1.10
2023-01-08T08:18:44.443Z,1.33
2023-01-08T08:21:12.196Z,1.20
2023-01-08T08:23:39.919Z,1.10
2023-01-08T08:26:07.758Z,0.90
2023-01-08T08:28:35.612Z,1.10
2023-01-08T08:31:06.517Z,1.20
2023-01-08T08:33:34.325Z,1.57
2023-01-08T08:36:03.423Z,1.10
2023-01-08T08:38:33.015Z,1.17
2023-01-08T08:41:01.326Z,1.30
2023-01-08T08:43:29.064Z,0.90
2023-01-08T08:45:56.935Z,1.20
2023-01-08T08:48:24.752Z,1.30
2023-01-08T08:50:52.406Z,1.10
2023-01-08T08:53:22.661Z,1.43
2023-01-08T08:55:50.363Z,1.13
2023-01-08T08:58:20.738Z,1.30
2023-01-08T09:00:48.524Z,1.17
2023-01-08T09:03:17.060Z,1.50
2023-01-08T09:05:45.362Z,1.60
2023-01-08T09:08:13.792Z,1.33
2023-01-08T09:10:43.557Z,1.53
2023-01-08T09:13:11.862Z,1.63
2023-01-08T09:15:41.080Z,1.53
2023-01-08T09:18:08.889Z,1.40
2023-01-08T09:20:36.806Z,1.37
2023-01-08T09:23:04.762Z,1.60
2023-01-08T09:25:32.534Z,1.67
2023-01-08T09:28:02.549Z,1.50
2023-01-08T09:30:30.676Z,1.27
2023-01-08T09:33:01.326Z,1.17
2023-01-08T09:35:30.399Z,1.03
2023-01-08T09:37:58.738Z,1.40
2023-01-08T09:40:32.596Z,1.20
2023-01-08T09:43:05.956Z,1.50
2023-01-08T09:45:38.769Z,1.00
2023-01-08T09:48:12.974Z,1.30
2023-01-08T09:50:40.944Z,0.93
2023-01-08T09:53:13.984Z,1.27
2023-01-08T09:55:42.671Z,0.97
2023-01-08T09:58:22.852Z,1.00
2023-01-08T10:00:50.800Z,0.93
2023-01-08T10:03:18.550Z,1.10
2023-01-08T10:05:46.367Z,1.20
2023-01-08T10:08:15.465Z,1.47
2023-01-08T10:10:45.771Z,1.03
2023-01-08T10:13:16.393Z,1.30
2023-01-08T10:15:44.132Z,1.27
2023-01-08T10:18:14.621Z,1.37
2023-01-08T10:20:42.364Z,1.30
2023-01-08T10:23:12.304Z,1.63
2023-01-08T10:25:52.912Z,2.00
2023-01-08T10:28:24.501Z,1.40
2023-01-08T10:30:53.669Z,1.23
2023-01-08T10:33:25.054Z,1.47
2023-01-08T10:35:57.716Z,1.40
2023-01-08T10:38:33.100Z,1.70
2023-01-08T10:41:04.280Z,1.57
2023-01-08T10:43:37.057Z,2.30
2023-01-08T10:46:07.866Z,1.70
2023-01-08T10:48:38.371Z,1.60
2023-01-08T10:51:08.587Z,1.20
2023-01-08T10:53:36.311Z,1.43
2023-01-08T10:56:05.967Z,1.40
2023-01-08T10:58:43.669Z,1.60
2023-01-08T11:01:12.900Z,1.57
2023-01-08T11:03:42.327Z,1.40
2023-01-08T11:06:18.624Z,1.40
2023-01-08T11:08:51.716Z,1.07
2023-01-08T11:11:20.185Z,1.37
2023-01-08T11:13:59.715Z,1.37
2023-01-08T11:16:36.714Z,1.30
2023-01-08T11:19:05.781Z,1.53
2023-01-08T11:21:36.227Z,1.60
2023-01-08T11:24:13.272Z,2.40
2023-01-08T11:26:43.019Z,1.30
2023-01-08T11:29:16.675Z,1.20
2023-01-08T11:31:51.027Z,1.30
2023-01-08T11:34:26.146Z,1.60
2023-01-08T11:37:00.442Z,1.40
2023-01-08T11:39:28.312Z,1.20
2023-01-08T11:42:10.269Z,1.10
2023-01-08T11:44:49.865Z,1.17
2023-01-08T11:47:30.458Z,1.30
2023-01-08T11:50:11.265Z,1.20
2023-01-08T11:52:47.135Z,0.87
2023-01-08T11:55:28.535Z,0.90
2023-01-08T11:58:22.861Z,1.20
2023-01-08T12:01:17.696Z,1.10
2023-01-08T12:03:50.668Z,1.13
2023-01-08T12:06:28.772Z,0.90
2023-01-08T12:09:08.910Z,1.13
2023-01-08T12:11:43.026Z,1.07
2023-01-08T12:14:24.832Z,0.80
2023-01-08T12:17:07.536Z,1.00
2023-01-08T12:19:53.091Z,1.10
2023-01-08T12:22:33.126Z,0.93
2023-01-08T12:25:37.739Z,1.07
2023-01-08T12:28:18.798Z,1.17
2023-01-08T12:31:09.617Z,0.80
2023-01-08T12:33:43.461Z,0.80
2023-01-08T12:36:16.175Z,1.00
2023-01-08T12:38:46.812Z,0.87
2023-01-08T12:41:18.218Z,0.90
2023-01-08T12:43:53.871Z,0.63
2023-01-08T12:46:23.822Z,0.70
2023-01-08T12:48:55.095Z,0.80
2023-01-08T12:51:30.070Z,0.60
2023-01-08T12:54:06.360Z,0.80
2023-01-08T12:56:44.325Z,0.77
2023-01-08T12:59:22.841Z,0.73
2023-01-08T13:01:59.644Z,0.83
2023-01-08T13:04:28.798Z,0.70
2023-01-08T13:07:03.225Z,0.87
2023-01-08T13:09:32.860Z,0.70
2023-01-08T13:12:01.652Z,0.80
2023-01-08T13:14:29.785Z,0.87
2023-01-08T13:17:06.471Z,1.10
2023-01-08T13:19:42.555Z,0.83
2023-01-08T13:22:25.475Z,0.90
2023-01-08T13:24:53.480Z,0.93
2023-01-08T13:27:31.136Z,1.00
2023-01-08T13:30:01.988Z,0.90
2023-01-08T13:32:45.782Z,1.00
2023-01-08T13:35:24.545Z,0.60
2023-01-08T13:37:54.113Z,0.50
2023-01-08T13:40:40.788Z,0.70
2023-01-08T13:43:15.855Z,0.70
2023-01-08T13:45:44.119Z,0.67
2023-01-08T13:48:23.064Z,0.20
2023-01-08T13:50:52.669Z,0.40
2023-01-08T13:53:21.890Z,0.50
2023-01-08T13:55:58.193Z,0.30
2023-01-08T13:58:30.162Z,0.40
2023-01-08T14:01:01.170Z,0.50
2023-01-08T14:03:30.810Z,0.60
2023-01-08T14:06:09.669Z,0.70
2023-01-08T14:08:37.479Z,0.50
2023-01-08T14:11:06.084Z,0.50
2023-01-08T14:13:35.740Z,0.60
2023-01-08T14:16:06.758Z,0.70
2023-01-08T14:18:35.249Z,0.73
2023-01-08T14:21:03.833Z,0.73
2023-01-08T14:23:37.456Z,0.60
2023-01-08T14:26:08.519Z,0.70
2023-01-08T14:28:37.029Z,0.80
2023-01-08T14:31:04.891Z,0.70
2023-01-08T14:33:35.147Z,0.70
2023-01-08T14:36:04.931Z,1.40
2023-01-08T14:38:34.157Z,0.70
2023-01-08T14:41:05.954Z,0.67
2023-01-08T14:43:36.365Z,0.67
2023-01-08T14:46:04.434Z,0.60
2023-01-08T14:48:40.577Z,0.70
2023-01-08T14:51:11.348Z,0.90
2023-01-08T14:53:46.116Z,0.70
2023-01-08T14:56:16.679Z,0.80
2023-01-08T14:58:46.646Z,1.00
2023-01-08T15:01:20.602Z,1.15
2023-01-08T15:03:50.390Z,1.27
2023-01-08T15:06:28.890Z,0.80
2023-01-08T15:09:00.017Z,1.00
2023-01-08T15:11:31.194Z,0.60
2023-01-08T15:13:59.362Z,1.00
2023-01-08T15:16:31.592Z,0.93
2023-01-08T15:19:05.672Z,1.00
2023-01-08T15:21:34.206Z,0.97
2023-01-08T15:24:04.800Z,0.90
2023-01-08T15:26:32.941Z,0.90
2023-01-08T15:29:02.722Z,0.90
2023-01-08T15:31:33.658Z,0.80
2023-01-08T15:34:01.941Z,0.73
2023-01-08T15:36:29.648Z,0.80
2023-01-08T15:38:57.473Z,0.80
2023-01-08T15:41:43.918Z,0.50
2023-01-08T15:44:13.412Z,0.70
2023-01-08T15:46:41.230Z,0.70
2023-01-08T15:49:09.024Z,0.80
2023-01-08T15:51:41.271Z,0.70
2023-01-08T15:54:12.617Z,0.73
2023-01-08T15:56:42.293Z,0.90
2023-01-08T15:59:10.026Z,0.90
2023-01-08T16:01:38.017Z,0.67
2023-01-08T16:04:06.141Z,0.90
2023-01-08T16:06:33.993Z,0.90
2023-01-08T16:09:01.899Z,0.90
2023-01-08T16:11:29.705Z,1.07
2023-01-08T16:14:01.388Z,0.77
2023-01-08T16:16:29.186Z,1.23
2023-01-08T16:18:56.961Z,1.13
2023-01-08T16:21:24.666Z,0.67
2023-01-08T16:23:52.397Z,0.63
2023-01-08T16:26:20.195Z,0.53
2023-01-08T16:28:47.983Z,0.80
2023-01-08T16:31:17.216Z,0.90
2023-01-08T16:33:45.009Z,0.60
2023-01-08T16:36:12.753Z,1.00
2023-01-08T16:38:40.470Z,0.53
2023-01-08T16:41:08.307Z,0.87
2023-01-08T16:43:41.756Z,0.80
2023-01-08T16:46:13.788Z,1.10
2023-01-08T16:48:43.804Z,1.10
2023-01-08T16:51:12.490Z,0.80
2023-01-08T16:53:40.624Z,1.00
2023-01-08T16:56:09.109Z,1.10
2023-01-08T16:58:37.101Z,1.47
2023-01-08T17:01:09.636Z,1.27
2023-01-08T17:03:37.618Z,1.10
2023-01-08T17:06:08.171Z,0.80
2023-01-08T17:08:40.885Z,1.17
2023-01-08T17:11:10.924Z,1.17
2023-01-08T17:13:39.099Z,1.20
2023-01-08T17:16:08.500Z,1.20
2023-01-08T17:18:36.706Z,1.10
2023-01-08T17:21:05.230Z,1.13
2023-01-08T17:23:34.547Z,1.23
2023-01-08T17:26:06.742Z,1.10
2023-01-08T17:28:35.084Z,1.17
2023-01-08T17:31:04.429Z,1.20
2023-01-08T17:33:32.589Z,1.23
2023-01-08T17:36:00.366Z,0.93
2023-01-08T17:38:28.573Z,1.53
2023-01-08T17:41:01.465Z,1.23
2023-01-08T17:43:29.419Z,1.43
2023-01-08T17:45:57.110Z,0.90
2023-01-08T17:48:24.902Z,1.20
2023-01-08T17:50:52.735Z,1.10
2023-01-08T17:53:20.560Z,1.40
2023-01-08T17:55:48.349Z,1.20
2023-01-08T17:58:17.561Z,1.60
2023-01-08T18:00:45.386Z,1.30
2023-01-08T18:03:13.527Z,1.30
2023-01-08T18:05:41.280Z,1.73
2023-01-08T18:08:09.011Z,1.90
2023-01-08T18:10:38.316Z,1.57
2023-01-08T18:13:06.442Z,1.60
2023-01-08T18:15:36.198Z,1.60
2023-01-08T18:18:04.963Z,1.73
2023-01-08T18:20:32.717Z,2.20
2023-01-08T18:23:00.509Z,1.77
2023-01-08T18:25:28.907Z,2.10
2023-01-08T18:27:56.710Z,2.10
2023-01-08T18:30:24.484Z,2.20
2023-01-08T18:32:53.641Z,1.93
2023-01-08T18:35:21.461Z,2.20
2023-01-08T18:37:49.250Z,2.33
2023-01-08T18:40:17.480Z,2.27
2023-01-08T18:42:45.275Z,2.17
2023-01-08T18:45:15.054Z,2.23
2023-01-08T18:47:42.826Z,1.70
2023-01-08T18:50:13.116Z,2.30
2023-01-08T18:52:41.982Z,2.00
2023-01-08T18:55:11.168Z,2.10
2023-01-08T18:57:39.626Z,1.80
2023-01-08T19:00:08.861Z,2.43
2023-01-08T19:02:36.710Z,3.00
2023-01-08T19:05:05.327Z,2.97
2023-01-08T19:07:34.527Z,2.80
2023-01-08T19:10:02.314Z,2.50
2023-01-08T19:12:32.260Z,2.90
2023-01-08T19:15:00.055Z,2.10
2023-01-08T19:17:31.065Z,2.13
2023-01-08T19:20:00.827Z,2.37
2023-01-08T19:22:29.202Z,3.53
2023-01-08T19:24:58.603Z,2.90
2023-01-08T19:27:27.551Z,2.77
2023-01-08T19:29:55.258Z,2.50
2023-01-08T19:32:23.273Z,2.60
2023-01-08T19:34:53.408Z,2.20
2023-01-08T19:37:21.171Z,2.13
2023-01-08T19:39:48.893Z,2.20
2023-01-08T19:42:35.268Z,2.23
2023-01-08T19:45:02.985Z,2.67
2023-01-08T19:47:30.761Z,2.37
2023-01-08T19:49:58.524Z,2.07
2023-01-08T19:52:26.299Z,2.33
2023-01-08T19:54:55.173Z,2.30
2023-01-08T19:57:24.297Z,1.90
2023-01-08T19:59:52.508Z,2.40
2023-01-08T20:02:20.454Z,1.83
2023-01-08T20:04:48.367Z,2.23
2023-01-08T20:07:16.222Z,2.10
2023-01-08T20:09:44.458Z,2.30
2023-01-08T20:12:13.816Z,1.80
2023-01-08T20:14:43.102Z,2.00
2023-01-08T20:17:11.784Z,2.10
2023-01-08T20:19:39.635Z,1.93
2023-01-08T20:22:07.659Z,1.80
2023-01-08T20:24:35.528Z,1.93
2023-01-08T20:27:03.310Z,2.60
2023-01-08T20:29:32.591Z,2.00
2023-01-08T20:32:03.293Z,1.90
2023-01-08T20:34:31.341Z,3.53
2023-01-08T20:36:59.283Z,6.13
2023-01-08T20:39:27.421Z,10.30
2023-01-08T20:42:01.146Z,3.93
2023-01-08T20:44:31.654Z,13.27
2023-01-08T20:47:00.941Z,4.17
2023-01-08T20:49:29.479Z,2.30
2023-01-08T20:51:59.556Z,2.03
2023-01-08T20:54:29.997Z,2.37
2023-01-08T20:56:58.412Z,1.77
2023-01-08T20:59:26.786Z,1.70
2023-01-08T21:01:54.872Z,2.00
2023-01-08T21:04:24.512Z,1.60
2023-01-08T21:06:52.425Z,1.83
2023-01-08T21:09:25.374Z,1.83
2023-01-08T21:11:53.288Z,1.90
2023-01-08T21:14:21.119Z,2.93
2023-01-08T21:16:49.081Z,2.70
2023-01-08T21:19:16.883Z,2.47
2023-01-08T21:21:46.718Z,2.30
2023-01-08T21:24:15.510Z,1.80
2023-01-08T21:26:45.833Z,1.60
2023-01-08T21:29:13.835Z,1.67
2023-01-08T21:31:41.666Z,1.47
2023-01-08T21:34:11.776Z,1.73
2023-01-08T21:36:39.733Z,1.93
2023-01-08T21:39:09.040Z,2.20
2023-01-08T21:41:54.089Z,2.00
2023-01-08T21:44:41.347Z,2.50
2023-01-08T21:47:12.137Z,2.20
2023-01-08T21:49:40.076Z,2.33
2023-01-08T21:52:25.249Z,2.27
2023-01-08T21:54:56.127Z,2.13
2023-01-08T21:57:25.364Z,2.20
2023-01-08T21:59:53.131Z,2.13
2023-01-08T22:02:23.204Z,2.43
2023-01-08T22:04:51.139Z,2.20
2023-01-08T22:07:18.852Z,2.77
2023-01-08T22:09:46.626Z,2.53
2023-01-08T22:12:16.304Z,2.80
2023-01-08T22:14:44.443Z,2.57
2023-01-08T22:17:12.214Z,2.13
2023-01-08T22:19:40.342Z,2.63
2023-01-08T22:22:10.891Z,2.33
2023-01-08T22:24:39.388Z,2.87
2023-01-08T22:27:07.890Z,2.70
2023-01-08T22:29:37.933Z,2.47
2023-01-08T22:32:05.880Z,2.57
2023-01-08T22:34:34.114Z,2.67
2023-01-08T22:37:02.462Z,3.17
2023-01-08T22:39:30.773Z,3.30
2023-01-08T22:41:58.667Z,3.23
2023-01-08T22:44:26.478Z,3.90
2023-01-08T22:46:56.465Z,4.60
2023-01-08T22:49:24.247Z,4.00
2023-01-08T22:51:52.006Z,3.50
2023-01-08T22:54:19.697Z,3.77
2023-01-08T22:56:47.432Z,3.90
2023-01-08T22:59:15.217Z,3.03
2023-01-08T23:01:43.298Z,2.87
2023-01-08T23:04:12.506Z,3.20
2023-01-08T23:06:40.271Z,2.60
2023-01-08T23:09:08.142Z,2.90
2023-01-08T23:11:35.845Z,2.60
2023-01-08T23:14:03.920Z,2.50
2023-01-08T23:16:31.754Z,2.40
2023-01-08T23:18:59.564Z,2.17
2023-01-08T23:21:29.232Z,2.47
2023-01-08T23:23:57.716Z,2.13
2023-01-08T23:26:27.839Z,2.23
2023-01-08T23:28:57.505Z,1.80
2023-01-08T23:31:27.270Z,2.13
2023-01-08T23:33:55.511Z,2.60
2023-01-08T23:36:24.100Z,2.50
2023-01-08T23:38:55.179Z,2.40
2023-01-08T23:41:25.937Z,2.07
2023-01-08T23:43:54.771Z,1.80
2023-01-08T23:46:22.555Z,1.70
2023-01-08T23:48:50.853Z,1.50
2023-01-08T23:51:18.698Z,1.83
2023-01-08T23:53:46.393Z,0.90
2023-01-08T23:56:15.638Z,0.70
2023-01-08T23:58:45.215Z,0.50
